CFG1542 EDDH-LEPA
Flight info
| Callsign | CFG1542 |
|---|---|
| Flight time | N/A |
| Altitude | 23000 |
| Route | IDEKO7G/33 IDEKO N850 PIROT/N0443F330 N850 XAROL/N0442F340 DCT BOMBI DCT GIGET DCT ABUKA DCT KRH DCT NATOR/N0441F330 DCT LUTIX DCT BENOT/N0443F350 DCT NEMOS DCT GEVEA DCT INCUS DCT BALSI DCT RETNO DCT TUPOX DCT MTG DCT DIVKO DCT VATIR N852 VERSO L129 LUNIK |
| Aircraft | A321/M-SDE3FGHIRWY/LB1 |
Departure
| Time | 2026-04-30 21:28 |
|---|---|
| Airport | Hamburg Helmut Schmidt Airport (EDDH) |
Arrival
| Time | N/A |
|---|---|
| Airport | Palma de Mallorca Airport (LEPA) |
| Time | Latitude | Longitude | Altitude | Speed | Heading |
|---|---|---|---|---|---|
| 2026-04-30 21:13 | 53.63195 | 10.00378 | 51 ft | 0 kts | 85° |
| 2026-04-30 21:20 | 53.63195 | 10.00375 | 51 ft | 2 kts | 85° |
| 2026-04-30 21:20 | 53.63194 | 10.00347 | 51 ft | 2 kts | 86° |
| 2026-04-30 21:20 | 53.63193 | 10.00320 | 51 ft | 2 kts | 86° |
| 2026-04-30 21:21 | 53.63192 | 10.00292 | 51 ft | 2 kts | 87° |
| 2026-04-30 21:21 | 53.63191 | 10.00264 | 51 ft | 2 kts | 89° |
| 2026-04-30 21:21 | 53.63198 | 10.00213 | 46 ft | 2 kts | 177° |
| 2026-04-30 21:22 | 53.63203 | 10.00213 | 46 ft | 0 kts | 176° |
| 2026-04-30 21:23 | 53.63180 | 10.00215 | 51 ft | 9 kts | 177° |
| 2026-04-30 21:23 | 53.63060 | 10.00213 | 51 ft | 8 kts | 200° |
| 2026-04-30 21:24 | 53.62977 | 10.00129 | 49 ft | 18 kts | 212° |
| 2026-04-30 21:24 | 53.62900 | 10.00054 | 51 ft | 5 kts | 202° |
| 2026-04-30 21:24 | 53.62877 | 10.00035 | 49 ft | 4 kts | 211° |
| 2026-04-30 21:24 | 53.62844 | 9.99960 | 50 ft | 12 kts | 240° |
| 2026-04-30 21:25 | 53.62864 | 9.99743 | 52 ft | 10 kts | 333° |
| 2026-04-30 21:25 | 53.62867 | 9.99741 | 53 ft | 0 kts | 333° |
| 2026-04-30 21:27 | 53.62872 | 9.99736 | 53 ft | 8 kts | 333° |
| 2026-04-30 21:27 | 53.63150 | 9.99495 | 51 ft | 81 kts | 333° |
| 2026-04-30 21:27 | 53.63832 | 9.98903 | 46 ft | 137 kts | 333° |
| 2026-04-30 21:28 | 53.65904 | 9.97131 | 692 ft | 173 kts | 335° |
| 2026-04-30 21:28 | 53.66989 | 9.96247 | 1316 ft | 173 kts | 335° |
| 2026-04-30 21:28 | 53.69400 | 9.94222 | 1607 ft | 213 kts | 333° |
| 2026-04-30 21:29 | 53.70744 | 9.92982 | 1937 ft | 223 kts | 323° |
| 2026-04-30 21:29 | 53.71105 | 9.85313 | 3146 ft | 265 kts | 249° |
| 2026-04-30 21:30 | 53.69701 | 9.79527 | 4701 ft | 267 kts | 245° |
| 2026-04-30 21:31 | 53.67328 | 9.70930 | 6892 ft | 271 kts | 242° |
| 2026-04-30 21:31 | 53.65586 | 9.65270 | 8269 ft | 272 kts | 240° |
| 2026-04-30 21:32 | 53.63688 | 9.59705 | 9350 ft | 285 kts | 230° |
| 2026-04-30 21:32 | 53.62170 | 9.57600 | 9691 ft | 291 kts | 200° |
| 2026-04-30 21:32 | 53.60209 | 9.56797 | 10253 ft | 292 kts | 185° |
| 2026-04-30 21:32 | 53.58166 | 9.56370 | 10672 ft | 303 kts | 183° |
| 2026-04-30 21:33 | 53.55991 | 9.55989 | 10791 ft | 324 kts | 183° |
| 2026-04-30 21:33 | 53.51235 | 9.55169 | 11164 ft | 359 kts | 184° |
| 2026-04-30 21:33 | 53.48733 | 9.54703 | 11678 ft | 364 kts | 184° |
| 2026-04-30 21:34 | 53.46207 | 9.54211 | 12241 ft | 368 kts | 184° |
| 2026-04-30 21:34 | 53.41075 | 9.53178 | 13405 ft | 375 kts | 184° |
| 2026-04-30 21:34 | 53.38471 | 9.52656 | 13973 ft | 379 kts | 184° |
| 2026-04-30 21:35 | 53.35881 | 9.52149 | 14496 ft | 382 kts | 183° |
| 2026-04-30 21:35 | 53.33225 | 9.51634 | 14995 ft | 386 kts | 184° |
| 2026-04-30 21:35 | 53.30546 | 9.51111 | 15498 ft | 389 kts | 184° |
| 2026-04-30 21:35 | 53.27848 | 9.50582 | 15986 ft | 392 kts | 184° |
| 2026-04-30 21:36 | 53.25121 | 9.50050 | 16476 ft | 396 kts | 184° |
| 2026-04-30 21:36 | 53.22375 | 9.49515 | 16956 ft | 399 kts | 184° |
| 2026-04-30 21:37 | 53.14003 | 9.47882 | 18355 ft | 409 kts | 184° |
| 2026-04-30 21:37 | 53.11167 | 9.47328 | 18799 ft | 412 kts | 184° |
| 2026-04-30 21:37 | 53.08349 | 9.46776 | 19179 ft | 415 kts | 184° |
| 2026-04-30 21:37 | 53.05471 | 9.46215 | 19588 ft | 418 kts | 184° |
| 2026-04-30 21:38 | 53.02575 | 9.45654 | 19990 ft | 420 kts | 184° |
| 2026-04-30 21:38 | 52.99664 | 9.45095 | 20385 ft | 423 kts | 184° |
| 2026-04-30 21:38 | 52.96735 | 9.44519 | 20785 ft | 425 kts | 185° |
| 2026-04-30 21:38 | 52.93786 | 9.43902 | 21174 ft | 428 kts | 185° |
| 2026-04-30 21:39 | 52.90823 | 9.43258 | 21563 ft | 431 kts | 186° |
| 2026-04-30 21:39 | 52.87841 | 9.42599 | 21954 ft | 433 kts | 186° |
| 2026-04-30 21:39 | 52.84846 | 9.41945 | 22332 ft | 436 kts | 186° |
| 2026-04-30 21:39 | 52.81827 | 9.41294 | 22710 ft | 439 kts | 186° |
| 2026-04-30 21:40 | 52.78833 | 9.40655 | 23089 ft | 441 kts | 186° |
| 2026-04-30 21:40 | 52.75782 | 9.40008 | 23389 ft | 444 kts | 185° |
| 2026-04-30 21:40 | 52.72704 | 9.39359 | 23445 ft | 447 kts | 185° |
| 2026-04-30 21:40 | 52.69624 | 9.38712 | 23434 ft | 447 kts | 185° |
| 2026-04-30 21:41 | 52.66532 | 9.38060 | 23430 ft | 448 kts | 185° |
| 2026-04-30 21:41 | 52.63443 | 9.37405 | 23447 ft | 448 kts | 185° |
| 2026-04-30 21:41 | 52.60358 | 9.36719 | 23431 ft | 448 kts | 186° |
| 2026-04-30 21:41 | 52.57273 | 9.35948 | 23441 ft | 448 kts | 187° |
| 2026-04-30 21:42 | 52.54200 | 9.35123 | 23432 ft | 448 kts | 187° |
| 2026-04-30 21:42 | 52.51162 | 9.34287 | 23440 ft | 448 kts | 187° |
| 2026-04-30 21:42 | 52.48090 | 9.33446 | 23439 ft | 448 kts | 187° |
| 2026-04-30 21:42 | 52.45012 | 9.32611 | 23440 ft | 448 kts | 187° |
| 2026-04-30 21:43 | 52.41935 | 9.31789 | 23439 ft | 448 kts | 187° |
| 2026-04-30 21:43 | 52.38861 | 9.30981 | 23440 ft | 448 kts | 187° |
| 2026-04-30 21:43 | 52.35791 | 9.30185 | 23429 ft | 448 kts | 187° |
| 2026-04-30 21:43 | 52.32710 | 9.29394 | 23426 ft | 448 kts | 187° |
| 2026-04-30 21:44 | 52.29632 | 9.28601 | 23438 ft | 448 kts | 187° |
| 2026-04-30 21:44 | 52.26555 | 9.27802 | 23439 ft | 448 kts | 187° |
| 2026-04-30 21:44 | 52.23521 | 9.27016 | 23440 ft | 447 kts | 187° |
| 2026-04-30 21:44 | 52.20443 | 9.26300 | 23432 ft | 446 kts | 185° |
| 2026-04-30 21:45 | 52.17360 | 9.25699 | 23434 ft | 446 kts | 184° |
| 2026-04-30 21:45 | 52.14269 | 9.25168 | 23427 ft | 446 kts | 183° |
| 2026-04-30 21:45 | 52.11183 | 9.24670 | 23428 ft | 446 kts | 183° |
| 2026-04-30 21:45 | 52.08091 | 9.24169 | 23434 ft | 447 kts | 183° |
| 2026-04-30 21:46 | 52.05000 | 9.23645 | 23434 ft | 447 kts | 184° |
| 2026-04-30 21:46 | 52.01928 | 9.23001 | 23435 ft | 448 kts | 186° |
| 2026-04-30 21:46 | 51.98833 | 9.22215 | 23431 ft | 448 kts | 187° |
| 2026-04-30 21:46 | 51.95764 | 9.21358 | 23432 ft | 448 kts | 188° |
| 2026-04-30 21:47 | 51.92720 | 9.20488 | 23436 ft | 455 kts | 188° |
| 2026-04-30 21:47 | 51.89578 | 9.19600 | 23441 ft | 459 kts | 187° |
| 2026-04-30 21:47 | 51.86431 | 9.18755 | 23431 ft | 459 kts | 186° |
| 2026-04-30 21:47 | 51.83269 | 9.18006 | 23442 ft | 459 kts | 185° |
| 2026-04-30 21:48 | 51.80105 | 9.17334 | 23444 ft | 459 kts | 185° |
| 2026-04-30 21:48 | 51.76936 | 9.16702 | 23431 ft | 459 kts | 185° |
| 2026-04-30 21:48 | 51.73770 | 9.16075 | 23442 ft | 459 kts | 185° |
| 2026-04-30 21:48 | 51.70602 | 9.15429 | 23434 ft | 459 kts | 185° |
| 2026-04-30 21:49 | 51.67474 | 9.14769 | 23433 ft | 459 kts | 185° |
| 2026-04-30 21:49 | 51.64312 | 9.14085 | 23443 ft | 459 kts | 185° |
| 2026-04-30 21:49 | 51.61144 | 9.13390 | 23444 ft | 459 kts | 185° |
| 2026-04-30 21:49 | 51.57981 | 9.12693 | 23432 ft | 459 kts | 185° |
| 2026-04-30 21:50 | 51.54816 | 9.12000 | 23439 ft | 459 kts | 185° |
| 2026-04-30 21:50 | 51.51651 | 9.11315 | 23432 ft | 459 kts | 185° |
| 2026-04-30 21:50 | 51.48493 | 9.10548 | 23436 ft | 459 kts | 187° |
| 2026-04-30 21:50 | 51.45355 | 9.09595 | 23433 ft | 460 kts | 189° |
| 2026-04-30 21:51 | 51.42225 | 9.08504 | 23430 ft | 460 kts | 191° |
| 2026-04-30 21:51 | 51.39144 | 9.07361 | 23431 ft | 460 kts | 191° |
| 2026-04-30 21:51 | 51.35997 | 9.06188 | 23422 ft | 460 kts | 191° |
| 2026-04-30 21:51 | 51.32908 | 9.05064 | 23434 ft | 460 kts | 190° |
| 2026-04-30 21:52 | 51.29769 | 9.04051 | 23434 ft | 459 kts | 187° |
| 2026-04-30 21:52 | 51.26611 | 9.03277 | 23423 ft | 458 kts | 185° |
| 2026-04-30 21:52 | 51.23446 | 9.02677 | 23428 ft | 458 kts | 184° |
| 2026-04-30 21:52 | 51.20280 | 9.02160 | 23434 ft | 458 kts | 183° |
| 2026-04-30 21:53 | 51.17107 | 9.01649 | 23429 ft | 458 kts | 183° |
| 2026-04-30 21:53 | 51.13940 | 9.01099 | 23429 ft | 458 kts | 184° |
| 2026-04-30 21:53 | 51.10778 | 9.00504 | 23425 ft | 458 kts | 184° |
| 2026-04-30 21:53 | 51.07617 | 8.99881 | 23433 ft | 458 kts | 185° |
| 2026-04-30 21:54 | 51.04503 | 8.99252 | 23433 ft | 458 kts | 185° |
| 2026-04-30 21:54 | 51.01343 | 8.98608 | 23426 ft | 458 kts | 185° |
| 2026-04-30 21:54 | 50.98183 | 8.97964 | 23427 ft | 457 kts | 185° |
| 2026-04-30 21:54 | 50.95025 | 8.97327 | 23430 ft | 457 kts | 184° |
| 2026-04-30 21:55 | 50.91871 | 8.96701 | 23426 ft | 457 kts | 184° |
| 2026-04-30 21:55 | 50.88710 | 8.96084 | 23424 ft | 457 kts | 184° |
| 2026-04-30 21:55 | 50.85552 | 8.95471 | 23420 ft | 457 kts | 184° |
| 2026-04-30 21:55 | 50.82395 | 8.94856 | 23415 ft | 457 kts | 184° |
| 2026-04-30 21:56 | 50.79241 | 8.94237 | 23415 ft | 457 kts | 184° |
| 2026-04-30 21:56 | 50.76086 | 8.93617 | 23410 ft | 457 kts | 184° |
| 2026-04-30 21:56 | 50.72968 | 8.93005 | 23406 ft | 457 kts | 184° |
| 2026-04-30 21:56 | 50.69821 | 8.92388 | 23406 ft | 457 kts | 184° |
| 2026-04-30 21:57 | 50.66658 | 8.91768 | 23400 ft | 457 kts | 184° |
| 2026-04-30 21:57 | 50.63499 | 8.91149 | 23400 ft | 457 kts | 184° |
| 2026-04-30 21:57 | 50.60341 | 8.90533 | 23398 ft | 457 kts | 184° |
| 2026-04-30 21:57 | 50.57185 | 8.89923 | 23402 ft | 457 kts | 184° |
| 2026-04-30 21:58 | 50.54027 | 8.89315 | 23399 ft | 457 kts | 184° |
| 2026-04-30 21:58 | 50.50879 | 8.88707 | 23397 ft | 457 kts | 184° |
| 2026-04-30 21:58 | 50.47725 | 8.88093 | 23392 ft | 457 kts | 184° |
| 2026-04-30 21:58 | 50.44568 | 8.87482 | 23387 ft | 457 kts | 184° |
| 2026-04-30 21:59 | 50.41418 | 8.86872 | 23387 ft | 456 kts | 184° |
| 2026-04-30 21:59 | 50.38268 | 8.86259 | 23385 ft | 456 kts | 184° |
| 2026-04-30 21:59 | 50.35115 | 8.85648 | 23379 ft | 456 kts | 184° |
| 2026-04-30 22:00 | 50.28860 | 8.84452 | 23387 ft | 459 kts | 184° |
| 2026-04-30 22:00 | 50.22361 | 8.83227 | 23373 ft | 482 kts | 184° |
| 2026-04-30 22:00 | 50.19001 | 8.82593 | 23387 ft | 492 kts | 184° |
| 2026-04-30 22:01 | 50.15566 | 8.81939 | 23383 ft | 501 kts | 184° |
| 2026-04-30 22:01 | 50.12084 | 8.81270 | 23378 ft | 507 kts | 184° |
| 2026-04-30 22:01 | 50.08643 | 8.80601 | 23685 ft | 491 kts | 184° |
| 2026-04-30 22:01 | 50.05228 | 8.79940 | 23704 ft | 499 kts | 184° |
| 2026-04-30 22:02 | 50.01847 | 8.79272 | 23696 ft | 481 kts | 184° |
| 2026-04-30 22:02 | 49.98634 | 8.78605 | 23690 ft | 465 kts | 185° |
| 2026-04-30 22:02 | 49.95477 | 8.77935 | 23688 ft | 460 kts | 185° |
| 2026-04-30 22:02 | 49.92309 | 8.77262 | 23687 ft | 458 kts | 185° |
| 2026-04-30 22:03 | 49.89147 | 8.76598 | 23678 ft | 458 kts | 184° |
| 2026-04-30 22:03 | 49.85997 | 8.75943 | 23694 ft | 458 kts | 184° |
| 2026-04-30 22:03 | 49.82831 | 8.75287 | 23690 ft | 457 kts | 184° |
| 2026-04-30 22:03 | 49.79675 | 8.74635 | 23693 ft | 457 kts | 184° |
| 2026-04-30 22:04 | 49.76528 | 8.73987 | 23685 ft | 457 kts | 184° |
| 2026-04-30 22:04 | 49.73375 | 8.73338 | 23685 ft | 457 kts | 184° |
| 2026-04-30 22:04 | 49.67064 | 8.72044 | 23682 ft | 457 kts | 184° |
| 2026-04-30 22:05 | 49.63952 | 8.71411 | 23680 ft | 457 kts | 184° |
| 2026-04-30 22:05 | 49.60797 | 8.70775 | 23687 ft | 457 kts | 184° |
| 2026-04-30 22:05 | 49.57645 | 8.70144 | 23687 ft | 457 kts | 184° |
| 2026-04-30 22:05 | 49.54508 | 8.69521 | 23688 ft | 457 kts | 184° |
| 2026-04-30 22:06 | 49.51351 | 8.68893 | 23685 ft | 457 kts | 184° |
| 2026-04-30 22:06 | 49.45072 | 8.67632 | 23694 ft | 457 kts | 184° |
| 2026-04-30 22:06 | 49.41918 | 8.66994 | 23695 ft | 457 kts | 184° |
| 2026-04-30 22:07 | 49.38763 | 8.66354 | 23695 ft | 457 kts | 185° |
| 2026-04-30 22:07 | 49.35652 | 8.65724 | 23701 ft | 457 kts | 185° |
| 2026-04-30 22:07 | 49.32497 | 8.65088 | 23703 ft | 457 kts | 185° |
| 2026-04-30 22:07 | 49.29340 | 8.64450 | 23702 ft | 457 kts | 185° |
| 2026-04-30 22:08 | 49.26192 | 8.63814 | 23700 ft | 457 kts | 185° |
| 2026-04-30 22:08 | 49.23040 | 8.63176 | 23708 ft | 457 kts | 185° |
| 2026-04-30 22:08 | 49.19883 | 8.62539 | 23708 ft | 457 kts | 185° |
| 2026-04-30 22:08 | 49.16723 | 8.61908 | 23701 ft | 457 kts | 185° |
| 2026-04-30 22:09 | 49.13569 | 8.61281 | 23697 ft | 457 kts | 185° |
| 2026-04-30 22:09 | 49.10410 | 8.60651 | 23703 ft | 458 kts | 185° |
| 2026-04-30 22:09 | 49.07252 | 8.60021 | 23702 ft | 458 kts | 185° |
| 2026-04-30 22:09 | 49.04140 | 8.59402 | 23703 ft | 458 kts | 185° |
| 2026-04-30 22:10 | 49.00983 | 8.58775 | 23704 ft | 458 kts | 185° |
| 2026-04-30 22:10 | 48.97827 | 8.58091 | 23710 ft | 458 kts | 186° |
| 2026-04-30 22:10 | 48.94683 | 8.57215 | 23703 ft | 459 kts | 189° |
| 2026-04-30 22:10 | 48.91558 | 8.56192 | 23706 ft | 460 kts | 190° |
| 2026-04-30 22:11 | 48.85322 | 8.53980 | 23709 ft | 460 kts | 190° |
| 2026-04-30 22:11 | 48.82205 | 8.52897 | 23697 ft | 460 kts | 190° |
| 2026-04-30 22:11 | 48.79081 | 8.51847 | 23705 ft | 460 kts | 189° |
| 2026-04-30 22:12 | 48.75953 | 8.50830 | 23701 ft | 459 kts | 189° |
| 2026-04-30 22:12 | 48.72870 | 8.49848 | 23707 ft | 459 kts | 189° |
| 2026-04-30 22:12 | 48.69740 | 8.48858 | 23706 ft | 459 kts | 189° |
| 2026-04-30 22:12 | 48.66614 | 8.47867 | 23707 ft | 459 kts | 189° |
| 2026-04-30 22:13 | 48.63488 | 8.46874 | 23710 ft | 459 kts | 189° |
| 2026-04-30 22:13 | 48.60361 | 8.45878 | 23712 ft | 459 kts | 189° |
| 2026-04-30 22:13 | 48.57238 | 8.44881 | 23717 ft | 459 kts | 189° |
| 2026-04-30 22:13 | 48.54112 | 8.43882 | 23716 ft | 459 kts | 189° |
| 2026-04-30 22:14 | 48.50989 | 8.42881 | 23721 ft | 459 kts | 189° |
| 2026-04-30 22:14 | 48.47907 | 8.41893 | 23727 ft | 459 kts | 189° |
| 2026-04-30 22:14 | 48.44783 | 8.40899 | 23725 ft | 459 kts | 189° |
| 2026-04-30 22:14 | 48.41660 | 8.39911 | 23726 ft | 459 kts | 189° |
| 2026-04-30 22:15 | 48.38537 | 8.38922 | 23729 ft | 459 kts | 189° |
| 2026-04-30 22:15 | 48.35412 | 8.37933 | 23735 ft | 459 kts | 189° |
| 2026-04-30 22:15 | 48.32289 | 8.36945 | 23736 ft | 459 kts | 189° |
| 2026-04-30 22:15 | 48.29166 | 8.35958 | 23735 ft | 459 kts | 189° |
| 2026-04-30 22:16 | 48.26044 | 8.34972 | 23739 ft | 459 kts | 189° |